sensor_id;sensor_type;location;lat;lon;timestamp;pressure;altitude;pressure_sealevel;temperature;humidity
9225;BME280;4647;48.072;11.616;2023-05-02T00:00:21;95328.19;;;9.72;86.69
9225;BME280;4647;48.072;11.616;2023-05-02T00:02:52;95336.69;;;9.74;86.31
9225;BME280;4647;48.072;11.616;2023-05-02T00:05:24;95333.53;;;9.79;86.12
9225;BME280;4647;48.072;11.616;2023-05-02T00:07:55;95337.41;;;9.78;85.76
9225;BME280;4647;48.072;11.616;2023-05-02T00:10:24;95336.22;;;9.79;85.73
9225;BME280;4647;48.072;11.616;2023-05-02T00:12:53;95330.41;;;9.81;85.57
9225;BME280;4647;48.072;11.616;2023-05-02T00:15:24;95332.03;;;9.75;86.04
9225;BME280;4647;48.072;11.616;2023-05-02T00:17:57;95327.44;;;9.72;85.99
9225;BME280;4647;48.072;11.616;2023-05-02T00:20:26;95323.50;;;9.76;85.76
9225;BME280;4647;48.072;11.616;2023-05-02T00:22:59;95331.13;;;9.85;85.38
9225;BME280;4647;48.072;11.616;2023-05-02T00:25:35;95327.31;;;9.82;85.36
9225;BME280;4647;48.072;11.616;2023-05-02T00:28:05;95330.13;;;9.72;85.42
9225;BME280;4647;48.072;11.616;2023-05-02T00:30:41;95325.13;;;9.70;85.54
9225;BME280;4647;48.072;11.616;2023-05-02T00:33:15;95326.22;;;9.76;85.47
9225;BME280;4647;48.072;11.616;2023-05-02T00:35:45;95304.66;;;9.66;85.23
9225;BME280;4647;48.072;11.616;2023-05-02T00:38:33;95329.75;;;9.70;85.34
9225;BME280;4647;48.072;11.616;2023-05-02T00:41:05;95327.16;;;9.59;85.30
9225;BME280;4647;48.072;11.616;2023-05-02T00:43:36;95333.88;;;9.44;85.58
9225;BME280;4647;48.072;11.616;2023-05-02T00:46:06;95325.75;;;9.47;85.80
9225;BME280;4647;48.072;11.616;2023-05-02T00:48:39;95327.75;;;9.36;85.52
9225;BME280;4647;48.072;11.616;2023-05-02T00:51:13;95323.56;;;9.32;85.80
9225;BME280;4647;48.072;11.616;2023-05-02T00:53:43;95327.50;;;9.20;86.30
9225;BME280;4647;48.072;11.616;2023-05-02T00:56:14;95326.00;;;9.15;86.26
9225;BME280;4647;48.072;11.616;2023-05-02T00:58:50;95328.75;;;9.12;86.13
9225;BME280;4647;48.072;11.616;2023-05-02T01:01:32;95327.63;;;9.06;86.54
9225;BME280;4647;48.072;11.616;2023-05-02T01:04:20;95327.28;;;9.04;86.43
9225;BME280;4647;48.072;11.616;2023-05-02T01:07:14;95325.44;;;8.90;86.57
9225;BME280;4647;48.072;11.616;2023-05-02T01:14:04;95327.75;;;8.88;86.60
9225;BME280;4647;48.072;11.616;2023-05-02T01:16:49;95330.53;;;8.74;86.60
9225;BME280;4647;48.072;11.616;2023-05-02T01:19:40;95326.38;;;8.66;87.07
9225;BME280;4647;48.072;11.616;2023-05-02T01:22:18;95334.41;;;8.73;86.93
9225;BME280;4647;48.072;11.616;2023-05-02T01:28:00;95337.16;;;8.66;87.09
9225;BME280;4647;48.072;11.616;2023-05-02T01:30:41;95331.41;;;8.60;87.11
9225;BME280;4647;48.072;11.616;2023-05-02T01:33:21;95327.19;;;8.59;87.12
9225;BME280;4647;48.072;11.616;2023-05-02T01:35:57;95338.41;;;8.50;87.10
9225;BME280;4647;48.072;11.616;2023-05-02T01:38:36;95336.47;;;8.51;87.31
9225;BME280;4647;48.072;11.616;2023-05-02T01:41:34;95340.00;;;8.41;87.17
9225;BME280;4647;48.072;11.616;2023-05-02T01:44:05;95335.34;;;8.52;87.23
9225;BME280;4647;48.072;11.616;2023-05-02T01:47:10;95344.22;;;8.52;86.88
9225;BME280;4647;48.072;11.616;2023-05-02T01:49:49;95333.47;;;8.38;87.35
9225;BME280;4647;48.072;11.616;2023-05-02T01:52:24;95339.25;;;8.33;87.74
9225;BME280;4647;48.072;11.616;2023-05-02T01:54:56;95335.41;;;8.30;87.67
9225;BME280;4647;48.072;11.616;2023-05-02T01:57:43;95343.91;;;8.36;87.59
9225;BME280;4647;48.072;11.616;2023-05-02T02:00:18;95343.09;;;8.39;87.03
9225;BME280;4647;48.072;11.616;2023-05-02T02:02:57;95352.00;;;8.29;87.19
9225;BME280;4647;48.072;11.616;2023-05-02T02:05:29;95354.31;;;8.38;87.41
9225;BME280;4647;48.072;11.616;2023-05-02T02:08:00;95353.16;;;8.35;87.42
9225;BME280;4647;48.072;11.616;2023-05-02T02:10:42;95346.59;;;8.32;87.93
9225;BME280;4647;48.072;11.616;2023-05-02T02:13:33;95354.69;;;8.40;87.86
9225;BME280;4647;48.072;11.616;2023-05-02T02:16:27;95355.81;;;8.42;88.09
9225;BME280;4647;48.072;11.616;2023-05-02T02:19:29;95362.28;;;8.63;87.40
9225;BME280;4647;48.072;11.616;2023-05-02T02:22:05;95365.31;;;8.68;87.16
9225;BME280;4647;48.072;11.616;2023-05-02T02:24:38;95359.56;;;8.63;87.24
9225;BME280;4647;48.072;11.616;2023-05-02T02:27:11;95368.88;;;8.54;87.64
9225;BME280;4647;48.072;11.616;2023-05-02T02:29:40;95363.81;;;8.60;87.38
9225;BME280;4647;48.072;11.616;2023-05-02T02:32:10;95364.19;;;8.66;87.40
9225;BME280;4647;48.072;11.616;2023-05-02T02:34:54;95363.41;;;8.65;87.22
9225;BME280;4647;48.072;11.616;2023-05-02T02:37:30;95366.50;;;8.64;87.36
9225;BME280;4647;48.072;11.616;2023-05-02T02:40:15;95356.88;;;8.59;87.07
9225;BME280;4647;48.072;11.616;2023-05-02T02:42:51;95364.53;;;8.71;86.95
9225;BME280;4647;48.072;11.616;2023-05-02T02:45:37;95364.63;;;8.57;86.96
9225;BME280;4647;48.072;11.616;2023-05-02T02:48:17;95361.59;;;8.41;87.23
9225;BME280;4647;48.072;11.616;2023-05-02T02:51:09;95379.31;;;8.52;87.28
9225;BME280;4647;48.072;11.616;2023-05-02T02:53:51;95338.91;;;8.24;86.99
9225;BME280;4647;48.072;11.616;2023-05-02T02:56:27;95360.09;;;8.32;87.22
9225;BME280;4647;48.072;11.616;2023-05-02T02:59:19;95364.72;;;8.32;87.44
9225;BME280;4647;48.072;11.616;2023-05-02T03:02:01;95387.78;;;8.47;87.18
9225;BME280;4647;48.072;11.616;2023-05-02T03:04:33;95389.34;;;8.52;87.48
9225;BME280;4647;48.072;11.616;2023-05-02T03:07:05;95388.19;;;8.53;87.71
9225;BME280;4647;48.072;11.616;2023-05-02T03:09:41;95378.53;;;8.55;87.33
9225;BME280;4647;48.072;11.616;2023-05-02T03:12:13;95391.19;;;8.66;87.37
9225;BME280;4647;48.072;11.616;2023-05-02T03:14:42;95391.94;;;8.70;87.18
9225;BME280;4647;48.072;11.616;2023-05-02T03:17:11;95400.06;;;8.66;87.19
9225;BME280;4647;48.072;11.616;2023-05-02T03:19:45;95395.00;;;8.72;87.17
9225;BME280;4647;48.072;11.616;2023-05-02T03:22:24;95370.75;;;8.65;87.04
9225;BME280;4647;48.072;11.616;2023-05-02T03:24:56;95386.97;;;8.61;87.33
9225;BME280;4647;48.072;11.616;2023-05-02T03:27:27;95396.16;;;8.71;87.01
9225;BME280;4647;48.072;11.616;2023-05-02T03:29:58;95381.53;;;8.65;86.82
9225;BME280;4647;48.072;11.616;2023-05-02T03:32:28;95395.41;;;8.67;86.97
9225;BME280;4647;48.072;11.616;2023-05-02T03:35:04;95392.34;;;8.65;87.15
9225;BME280;4647;48.072;11.616;2023-05-02T03:37:42;95394.69;;;8.63;86.98
9225;BME280;4647;48.072;11.616;2023-05-02T03:40:15;95398.97;;;8.56;87.25
9225;BME280;4647;48.072;11.616;2023-05-02T03:42:46;95398.97;;;8.56;86.68
9225;BME280;4647;48.072;11.616;2023-05-02T03:45:15;95401.28;;;8.51;86.68
9225;BME280;4647;48.072;11.616;2023-05-02T03:47:45;95399.38;;;8.44;86.48
9225;BME280;4647;48.072;11.616;2023-05-02T03:50:13;95404.44;;;8.35;86.69
9225;BME280;4647;48.072;11.616;2023-05-02T03:52:46;95402.50;;;8.25;86.70
9225;BME280;4647;48.072;11.616;2023-05-02T03:55:15;95401.34;;;8.26;86.82
9225;BME280;4647;48.072;11.616;2023-05-02T03:57:47;95406.00;;;8.18;86.74
9225;BME280;4647;48.072;11.616;2023-05-02T04:00:17;95402.59;;;7.96;86.84
9225;BME280;4647;48.072;11.616;2023-05-02T04:02:46;95407.25;;;7.89;87.14
9225;BME280;4647;48.072;11.616;2023-05-02T04:05:16;95418.41;;;7.91;87.06
9225;BME280;4647;48.072;11.616;2023-05-02T04:07:50;95417.63;;;7.97;87.20
9225;BME280;4647;48.072;11.616;2023-05-02T04:10:18;95413.03;;;7.91;87.48
9225;BME280;4647;48.072;11.616;2023-05-02T04:12:49;95427.28;;;7.95;87.60
9225;BME280;4647;48.072;11.616;2023-05-02T04:15:24;95424.56;;;8.09;87.72
9225;BME280;4647;48.072;11.616;2023-05-02T04:17:53;95432.63;;;8.13;87.60
9225;BME280;4647;48.072;11.616;2023-05-02T04:20:22;95433.38;;;8.17;87.52
9225;BME280;4647;48.072;11.616;2023-05-02T04:22:53;95439.16;;;8.22;87.53
9225;BME280;4647;48.072;11.616;2023-05-02T04:25:26;95440.69;;;8.27;87.66
9225;BME280;4647;48.072;11.616;2023-05-02T04:27:55;95443.38;;;8.41;87.61
9225;BME280;4647;48.072;11.616;2023-05-02T04:30:24;95450.66;;;8.48;88.14
9225;BME280;4647;48.072;11.616;2023-05-02T04:33:01;95454.91;;;8.56;88.08
9225;BME280;4647;48.072;11.616;2023-05-02T04:35:31;95434.06;;;8.56;87.73
9225;BME280;4647;48.072;11.616;2023-05-02T04:38:02;95435.59;;;8.57;87.54
9225;BME280;4647;48.072;11.616;2023-05-02T04:40:31;95460.56;;;8.83;87.37
9225;BME280;4647;48.072;11.616;2023-05-02T04:43:00;95452.41;;;8.93;86.52
9225;BME280;4647;48.072;11.616;2023-05-02T04:45:29;95413.50;;;8.73;86.94
9225;BME280;4647;48.072;11.616;2023-05-02T04:47:58;95460.84;;;9.06;86.55
9225;BME280;4647;48.072;11.616;2023-05-02T04:50:27;95465.38;;;9.20;86.26
9225;BME280;4647;48.072;11.616;2023-05-02T04:52:59;95464.56;;;9.27;85.42
9225;BME280;4647;48.072;11.616;2023-05-02T04:55:33;95475.25;;;9.48;85.23
9225;BME280;4647;48.072;11.616;2023-05-02T04:58:07;95476.28;;;9.61;84.80
9225;BME280;4647;48.072;11.616;2023-05-02T05:00:42;95483.56;;;9.68;83.95
9225;BME280;4647;48.072;11.616;2023-05-02T05:03:11;95463.84;;;9.74;82.90
9225;BME280;4647;48.072;11.616;2023-05-02T05:05:41;95483.00;;;9.94;82.15
9225;BME280;4647;48.072;11.616;2023-05-02T05:08:13;95491.38;;;10.07;82.39
9225;BME280;4647;48.072;11.616;2023-05-02T05:10:52;95490.13;;;10.15;80.91
9225;BME280;4647;48.072;11.616;2023-05-02T05:13:23;95497.84;;;10.20;80.59
9225;BME280;4647;48.072;11.616;2023-05-02T05:15:53;95503.16;;;10.31;80.55
9225;BME280;4647;48.072;11.616;2023-05-02T05:18:23;95509.59;;;10.48;80.22
9225;BME280;4647;48.072;11.616;2023-05-02T05:21:03;95513.66;;;10.63;78.70
9225;BME280;4647;48.072;11.616;2023-05-02T05:23:44;95512.94;;;10.59;78.11
9225;BME280;4647;48.072;11.616;2023-05-02T05:26:24;95521.41;;;10.64;77.86
9225;BME280;4647;48.072;11.616;2023-05-02T05:29:09;95521.41;;;10.64;77.95
9225;BME280;4647;48.072;11.616;2023-05-02T05:31:38;95522.78;;;10.80;76.86
9225;BME280;4647;48.072;11.616;2023-05-02T05:34:08;95523.88;;;10.86;77.02
9225;BME280;4647;48.072;11.616;2023-05-02T05:36:46;95524.94;;;10.95;76.08
9225;BME280;4647;48.072;11.616;2023-05-02T05:39:23;95530.97;;;11.06;76.18
9225;BME280;4647;48.072;11.616;2023-05-02T05:42:04;95537.50;;;11.13;75.74
9225;BME280;4647;48.072;11.616;2023-05-02T05:44:37;95538.28;;;11.13;75.84
9225;BME280;4647;48.072;11.616;2023-05-02T05:47:20;95533.88;;;10.92;76.20
9225;BME280;4647;48.072;11.616;2023-05-02T05:49:53;95552.00;;;10.99;76.51
9225;BME280;4647;48.072;11.616;2023-05-02T05:52:24;95552.75;;;10.99;76.74
9225;BME280;4647;48.072;11.616;2023-05-02T05:54:55;95550.97;;;11.20;76.29
9225;BME280;4647;48.072;11.616;2023-05-02T05:57:27;95552.97;;;11.16;76.24
9225;BME280;4647;48.072;11.616;2023-05-02T05:59:56;95530.88;;;10.83;76.56
9225;BME280;4647;48.072;11.616;2023-05-02T06:02:26;95552.56;;;11.17;76.16
9225;BME280;4647;48.072;11.616;2023-05-02T06:04:58;95553.84;;;11.05;76.84
9225;BME280;4647;48.072;11.616;2023-05-02T06:07:29;95536.53;;;10.96;76.65
9225;BME280;4647;48.072;11.616;2023-05-02T06:10:02;95565.63;;;11.26;76.08
9225;BME280;4647;48.072;11.616;2023-05-02T06:12:34;95565.75;;;11.46;75.40
9225;BME280;4647;48.072;11.616;2023-05-02T06:15:08;95538.72;;;11.38;75.38
9225;BME280;4647;48.072;11.616;2023-05-02T06:17:43;95572.00;;;11.69;75.12
9225;BME280;4647;48.072;11.616;2023-05-02T06:20:18;95574.25;;;11.78;73.93
9225;BME280;4647;48.072;11.616;2023-05-02T06:22:54;95577.47;;;11.96;73.45
9225;BME280;4647;48.072;11.616;2023-05-02T06:25:26;95575.13;;;12.22;72.62
9225;BME280;4647;48.072;11.616;2023-05-02T06:28:01;95577.16;;;12.41;71.99
9225;BME280;4647;48.072;11.616;2023-05-02T06:33:36;95580.75;;;12.58;71.20
9225;BME280;4647;48.072;11.616;2023-05-02T06:36:07;95576.94;;;12.52;71.87
9225;BME280;4647;48.072;11.616;2023-05-02T06:38:38;95573.94;;;11.99;73.02
9225;BME280;4647;48.072;11.616;2023-05-02T06:41:12;95582.16;;;12.66;71.02
9225;BME280;4647;48.072;11.616;2023-05-02T06:43:51;95584.28;;;12.98;69.80
9225;BME280;4647;48.072;11.616;2023-05-02T06:46:33;95592.44;;;12.78;71.03
9225;BME280;4647;48.072;11.616;2023-05-02T06:49:31;95597.16;;;13.17;69.79
9225;BME280;4647;48.072;11.616;2023-05-02T06:52:20;95592.19;;;13.12;69.71
9225;BME280;4647;48.072;11.616;2023-05-02T06:57:55;95598.38;;;13.13;69.17
9225;BME280;4647;48.072;11.616;2023-05-02T07:00:42;95609.94;;;13.40;69.05
9225;BME280;4647;48.072;11.616;2023-05-02T07:03:18;95611.41;;;13.25;68.86
9225;BME280;4647;48.072;11.616;2023-05-02T07:05:50;95611.81;;;13.24;68.84
9225;BME280;4647;48.072;11.616;2023-05-02T07:08:18;95620.06;;;12.97;69.35
9225;BME280;4647;48.072;11.616;2023-05-02T07:10:50;95609.13;;;12.57;70.53
9225;BME280;4647;48.072;11.616;2023-05-02T07:13:19;95591.00;;;12.70;69.25
9225;BME280;4647;48.072;11.616;2023-05-02T07:15:53;95616.28;;;12.90;70.06
9225;BME280;4647;48.072;11.616;2023-05-02T07:18:23;95612.50;;;13.47;68.51
9225;BME280;4647;48.072;11.616;2023-05-02T07:21:09;95615.72;;;13.98;67.32
9225;BME280;4647;48.072;11.616;2023-05-02T07:23:55;95607.66;;;14.27;65.50
9225;BME280;4647;48.072;11.616;2023-05-02T07:26:27;95611.28;;;14.04;66.24
9225;BME280;4647;48.072;11.616;2023-05-02T07:29:07;95617.03;;;14.26;65.55
9225;BME280;4647;48.072;11.616;2023-05-02T07:31:54;95618.06;;;14.65;64.07
9225;BME280;4647;48.072;11.616;2023-05-02T07:34:52;95615.91;;;14.40;64.20
9225;BME280;4647;48.072;11.616;2023-05-02T07:37:50;95615.66;;;14.34;64.55
9225;BME280;4647;48.072;11.616;2023-05-02T07:40:30;95613.38;;;13.80;66.19
9225;BME280;4647;48.072;11.616;2023-05-02T07:43:01;95613.31;;;13.64;67.30
9225;BME280;4647;48.072;11.616;2023-05-02T07:45:46;95612.69;;;13.76;65.85
9225;BME280;4647;48.072;11.616;2023-05-02T07:48:28;95609.09;;;13.24;67.17
9225;BME280;4647;48.072;11.616;2023-05-02T07:51:10;95591.66;;;12.98;68.65
9225;BME280;4647;48.072;11.616;2023-05-02T07:53:59;95626.91;;;13.28;67.97
9225;BME280;4647;48.072;11.616;2023-05-02T07:56:35;95610.09;;;13.10;68.52
9225;BME280;4647;48.072;11.616;2023-05-02T07:59:10;95636.59;;;13.49;67.12
9225;BME280;4647;48.072;11.616;2023-05-02T08:01:40;95623.22;;;13.15;68.23
9225;BME280;4647;48.072;11.616;2023-05-02T08:04:12;95627.44;;;12.96;70.20
9225;BME280;4647;48.072;11.616;2023-05-02T08:06:43;95638.16;;;13.66;67.17
9225;BME280;4647;48.072;11.616;2023-05-02T08:09:16;95635.13;;;14.00;65.38
9225;BME280;4647;48.072;11.616;2023-05-02T08:11:56;95641.38;;;13.81;67.88
9225;BME280;4647;48.072;11.616;2023-05-02T08:14:30;95647.69;;;13.94;66.66
9225;BME280;4647;48.072;11.616;2023-05-02T08:17:04;95621.88;;;13.82;65.64
9225;BME280;4647;48.072;11.616;2023-05-02T08:19:38;95629.06;;;13.37;66.70
9225;BME280;4647;48.072;11.616;2023-05-02T08:22:11;95639.50;;;13.58;66.26
9225;BME280;4647;48.072;11.616;2023-05-02T08:24:48;95640.09;;;13.86;66.81
9225;BME280;4647;48.072;11.616;2023-05-02T08:27:24;95646.69;;;14.57;65.24
9225;BME280;4647;48.072;11.616;2023-05-02T08:29:56;95637.97;;;14.94;62.99
9225;BME280;4647;48.072;11.616;2023-05-02T08:32:36;95645.19;;;15.46;62.23
9225;BME280;4647;48.072;11.616;2023-05-02T08:35:11;95643.44;;;14.94;61.79
9225;BME280;4647;48.072;11.616;2023-05-02T08:37:43;95652.53;;;15.04;62.44
9225;BME280;4647;48.072;11.616;2023-05-02T08:40:23;95641.34;;;15.44;60.00
9225;BME280;4647;48.072;11.616;2023-05-02T08:42:56;95653.28;;;15.50;61.18
9225;BME280;4647;48.072;11.616;2023-05-02T08:45:39;95653.03;;;15.73;60.05
9225;BME280;4647;48.072;11.616;2023-05-02T08:48:10;95668.22;;;15.74;60.31
9225;BME280;4647;48.072;11.616;2023-05-02T08:50:48;95664.94;;;15.67;59.59
9225;BME280;4647;48.072;11.616;2023-05-02T08:53:23;95662.44;;;15.85;59.76
9225;BME280;4647;48.072;11.616;2023-05-02T08:55:53;95656.31;;;15.68;58.70
9225;BME280;4647;48.072;11.616;2023-05-02T08:58:27;95674.63;;;16.09;58.18
9225;BME280;4647;48.072;11.616;2023-05-02T09:01:32;95669.81;;;16.64;56.82
9225;BME280;4647;48.072;11.616;2023-05-02T09:04:23;95652.63;;;16.76;55.18
9225;BME280;4647;48.072;11.616;2023-05-02T09:07:01;95656.91;;;16.90;55.63
9225;BME280;4647;48.072;11.616;2023-05-02T09:09:33;95679.88;;;16.93;56.36
9225;BME280;4647;48.072;11.616;2023-05-02T09:12:02;95666.78;;;17.78;54.59
9225;BME280;4647;48.072;11.616;2023-05-02T09:14:32;95675.09;;;18.59;51.72
9225;BME280;4647;48.072;11.616;2023-05-02T09:17:02;95681.41;;;18.37;51.37
9225;BME280;4647;48.072;11.616;2023-05-02T09:19:33;95675.28;;;17.59;52.87
9225;BME280;4647;48.072;11.616;2023-05-02T09:22:08;95683.41;;;17.49;52.85
9225;BME280;4647;48.072;11.616;2023-05-02T09:24:43;95680.16;;;17.76;52.72
9225;BME280;4647;48.072;11.616;2023-05-02T09:27:12;95692.19;;;18.01;52.81
9225;BME280;4647;48.072;11.616;2023-05-02T09:29:42;95684.66;;;17.70;52.58
9225;BME280;4647;48.072;11.616;2023-05-02T09:32:13;95689.75;;;16.39;55.69
9225;BME280;4647;48.072;11.616;2023-05-02T09:35:03;95696.59;;;17.07;54.51
9225;BME280;4647;48.072;11.616;2023-05-02T09:37:38;95684.91;;;16.94;54.43
9225;BME280;4647;48.072;11.616;2023-05-02T09:40:23;95686.78;;;16.21;56.41
9225;BME280;4647;48.072;11.616;2023-05-02T09:43:13;95695.09;;;16.30;55.41
9225;BME280;4647;48.072;11.616;2023-05-02T09:45:57;95680.00;;;16.38;54.08
9225;BME280;4647;48.072;11.616;2023-05-02T09:48:51;95682.00;;;15.83;55.10
9225;BME280;4647;48.072;11.616;2023-05-02T09:51:21;95681.63;;;16.23;56.55
9225;BME280;4647;48.072;11.616;2023-05-02T09:53:53;95685.72;;;16.56;55.17
9225;BME280;4647;48.072;11.616;2023-05-02T09:56:22;95695.72;;;16.09;55.50
9225;BME280;4647;48.072;11.616;2023-05-02T09:59:11;95693.78;;;16.22;55.33
9225;BME280;4647;48.072;11.616;2023-05-02T10:01:42;95682.63;;;16.16;56.27
9225;BME280;4647;48.072;11.616;2023-05-02T10:04:13;95687.31;;;16.79;53.49
9225;BME280;4647;48.072;11.616;2023-05-02T10:06:46;95687.75;;;16.52;55.19
9225;BME280;4647;48.072;11.616;2023-05-02T10:09:35;95697.06;;;16.55;53.80
9225;BME280;4647;48.072;11.616;2023-05-02T10:12:13;95689.72;;;16.90;53.37
9225;BME280;4647;48.072;11.616;2023-05-02T10:14:48;95691.94;;;16.70;53.55
9225;BME280;4647;48.072;11.616;2023-05-02T10:17:27;95691.22;;;17.16;53.46
9225;BME280;4647;48.072;11.616;2023-05-02T10:20:04;95694.44;;;17.37;52.63
9225;BME280;4647;48.072;11.616;2023-05-02T10:22:45;95700.16;;;17.30;52.32
9225;BME280;4647;48.072;11.616;2023-05-02T10:25:33;95695.22;;;16.90;50.35
9225;BME280;4647;48.072;11.616;2023-05-02T10:28:09;95683.56;;;16.99;52.26
9225;BME280;4647;48.072;11.616;2023-05-02T10:30:44;95692.94;;;17.23;53.06
9225;BME280;4647;48.072;11.616;2023-05-02T10:33:23;95696.81;;;17.00;54.08
9225;BME280;4647;48.072;11.616;2023-05-02T10:36:01;95689.47;;;15.95;56.20
9225;BME280;4647;48.072;11.616;2023-05-02T10:38:31;95682.59;;;15.91;56.58
9225;BME280;4647;48.072;11.616;2023-05-02T10:41:08;95687.56;;;15.51;58.31
9225;BME280;4647;48.072;11.616;2023-05-02T10:43:51;95682.69;;;15.58;57.38
9225;BME280;4647;48.072;11.616;2023-05-02T10:46:50;95686.06;;;15.33;56.54
9225;BME280;4647;48.072;11.616;2023-05-02T10:49:34;95685.81;;;15.44;56.11
9225;BME280;4647;48.072;11.616;2023-05-02T10:52:28;95679.69;;;15.40;55.67
9225;BME280;4647;48.072;11.616;2023-05-02T10:55:31;95678.31;;;15.90;56.38
9225;BME280;4647;48.072;11.616;2023-05-02T10:58:25;95688.88;;;15.46;57.42
9225;BME280;4647;48.072;11.616;2023-05-02T11:04:02;95678.66;;;17.06;52.89
9225;BME280;4647;48.072;11.616;2023-05-02T11:10:26;95658.66;;;16.71;53.05
9225;BME280;4647;48.072;11.616;2023-05-02T11:13:10;95655.22;;;17.05;52.39
9225;BME280;4647;48.072;11.616;2023-05-02T11:15:56;95634.66;;;17.79;49.85
9225;BME280;4647;48.072;11.616;2023-05-02T11:18:26;95666.91;;;17.75;51.05
9225;BME280;4647;48.072;11.616;2023-05-02T11:21:25;95686.31;;;18.12;49.46
9225;BME280;4647;48.072;11.616;2023-05-02T11:30:03;95692.75;;;13.99;53.75
9225;BME280;4647;48.072;11.616;2023-05-02T11:35:50;95701.00;;;13.12;60.26
9225;BME280;4647;48.072;11.616;2023-05-02T11:38:26;95650.59;;;12.61;60.99
9225;BME280;4647;48.072;11.616;2023-05-02T11:41:05;95708.69;;;12.71;62.52
9225;BME280;4647;48.072;11.616;2023-05-02T11:43:39;95717.81;;;12.30;63.05
9225;BME280;4647;48.072;11.616;2023-05-02T11:46:16;95722.09;;;12.31;63.69
9225;BME280;4647;48.072;11.616;2023-05-02T11:48:49;95707.78;;;11.66;65.99
9225;BME280;4647;48.072;11.616;2023-05-02T11:51:36;95731.34;;;10.97;69.25
9225;BME280;4647;48.072;11.616;2023-05-02T11:54:12;95724.00;;;10.46;71.44
9225;BME280;4647;48.072;11.616;2023-05-02T11:56:44;95729.03;;;10.40;71.37
9225;BME280;4647;48.072;11.616;2023-05-02T11:59:16;95722.88;;;10.36;75.21
9225;BME280;4647;48.072;11.616;2023-05-02T12:01:57;95726.63;;;10.53;76.04
9225;BME280;4647;48.072;11.616;2023-05-02T12:04:26;95718.09;;;10.58;74.10
9225;BME280;4647;48.072;11.616;2023-05-02T12:07:01;95713.78;;;10.68;75.31
9225;BME280;4647;48.072;11.616;2023-05-02T12:09:31;95716.84;;;10.70;75.23
9225;BME280;4647;48.072;11.616;2023-05-02T12:12:02;95721.78;;;10.82;75.81
9225;BME280;4647;48.072;11.616;2023-05-02T12:14:35;95718.22;;;10.92;73.84
9225;BME280;4647;48.072;11.616;2023-05-02T12:17:16;95723.03;;;11.15;74.39
9225;BME280;4647;48.072;11.616;2023-05-02T12:19:47;95714.25;;;11.42;74.13
9225;BME280;4647;48.072;11.616;2023-05-02T12:22:19;95711.66;;;11.65;73.93
9225;BME280;4647;48.072;11.616;2023-05-02T12:24:59;95710.56;;;11.93;72.58
9225;BME280;4647;48.072;11.616;2023-05-02T12:27:39;95698.59;;;12.17;70.03
9225;BME280;4647;48.072;11.616;2023-05-02T12:30:24;95693.06;;;12.24;71.46
9225;BME280;4647;48.072;11.616;2023-05-02T12:33:00;95701.94;;;12.55;73.20
9225;BME280;4647;48.072;11.616;2023-05-02T12:35:32;95699.59;;;12.57;73.37
9225;BME280;4647;48.072;11.616;2023-05-02T12:38:14;95719.97;;;12.69;73.05
9225;BME280;4647;48.072;11.616;2023-05-02T12:40:49;95722.59;;;13.23;71.64
9225;BME280;4647;48.072;11.616;2023-05-02T12:43:19;95731.88;;;13.49;71.07
9225;BME280;4647;48.072;11.616;2023-05-02T12:45:49;95731.75;;;13.76;68.38
9225;BME280;4647;48.072;11.616;2023-05-02T12:48:24;95732.13;;;13.94;68.04
9225;BME280;4647;48.072;11.616;2023-05-02T12:50:54;95735.75;;;14.27;65.09
9225;BME280;4647;48.072;11.616;2023-05-02T12:53:41;95738.91;;;14.78;63.67
9225;BME280;4647;48.072;11.616;2023-05-02T12:56:14;95737.91;;;15.04;64.00
9225;BME280;4647;48.072;11.616;2023-05-02T12:58:48;95740.09;;;15.26;62.41
9225;BME280;4647;48.072;11.616;2023-05-02T13:01:17;95742.34;;;15.60;60.02
9225;BME280;4647;48.072;11.616;2023-05-02T13:03:50;95735.13;;;15.37;59.53
9225;BME280;4647;48.072;11.616;2023-05-02T13:06:28;95735.34;;;15.59;62.12
9225;BME280;4647;48.072;11.616;2023-05-02T13:09:08;95717.53;;;15.83;59.95
9225;BME280;4647;48.072;11.616;2023-05-02T13:11:37;95738.63;;;16.24;57.24
9225;BME280;4647;48.072;11.616;2023-05-02T13:14:07;95736.59;;;16.00;57.49
9225;BME280;4647;48.072;11.616;2023-05-02T13:16:38;95733.16;;;16.24;57.52
9225;BME280;4647;48.072;11.616;2023-05-02T13:19:16;95728.38;;;16.41;55.97
9225;BME280;4647;48.072;11.616;2023-05-02T13:21:46;95732.28;;;16.53;57.82
9225;BME280;4647;48.072;11.616;2023-05-02T13:24:17;95724.53;;;16.51;56.96
9225;BME280;4647;48.072;11.616;2023-05-02T13:26:47;95730.22;;;16.95;56.21
9225;BME280;4647;48.072;11.616;2023-05-02T13:29:19;95741.63;;;17.41;55.88
9225;BME280;4647;48.072;11.616;2023-05-02T13:31:54;95716.75;;;17.13;53.87
9225;BME280;4647;48.072;11.616;2023-05-02T13:34:23;95732.72;;;17.02;51.84
9225;BME280;4647;48.072;11.616;2023-05-02T13:36:54;95722.25;;;16.75;54.04
9225;BME280;4647;48.072;11.616;2023-05-02T13:39:27;95719.06;;;16.90;54.31
9225;BME280;4647;48.072;11.616;2023-05-02T13:42:00;95722.44;;;16.55;52.91
9225;BME280;4647;48.072;11.616;2023-05-02T13:44:39;95726.13;;;17.25;53.25
9225;BME280;4647;48.072;11.616;2023-05-02T13:47:11;95726.84;;;17.51;51.82
9225;BME280;4647;48.072;11.616;2023-05-02T13:49:46;95727.06;;;18.00;50.09
9225;BME280;4647;48.072;11.616;2023-05-02T13:52:16;95723.22;;;17.98;47.84
9225;BME280;4647;48.072;11.616;2023-05-02T13:54:53;95726.03;;;17.16;50.13
9225;BME280;4647;48.072;11.616;2023-05-02T13:57:23;95739.88;;;16.07;51.94
9225;BME280;4647;48.072;11.616;2023-05-02T14:00:08;95723.81;;;15.96;51.76
9225;BME280;4647;48.072;11.616;2023-05-02T14:02:39;95731.28;;;16.21;52.33
9225;BME280;4647;48.072;11.616;2023-05-02T14:05:19;95738.44;;;15.61;52.41
9225;BME280;4647;48.072;11.616;2023-05-02T14:07:51;95727.53;;;15.45;54.08
9225;BME280;4647;48.072;11.616;2023-05-02T14:10:27;95737.16;;;15.49;53.40
9225;BME280;4647;48.072;11.616;2023-05-02T14:13:03;95737.34;;;15.42;53.64
9225;BME280;4647;48.072;11.616;2023-05-02T14:15:34;95737.88;;;14.88;54.46
9225;BME280;4647;48.072;11.616;2023-05-02T14:18:11;95733.53;;;15.07;53.86
9225;BME280;4647;48.072;11.616;2023-05-02T14:21:03;95744.66;;;15.16;51.62
9225;BME280;4647;48.072;11.616;2023-05-02T14:23:41;95746.69;;;14.80;53.25
9225;BME280;4647;48.072;11.616;2023-05-02T14:26:22;95752.91;;;14.80;53.32
9225;BME280;4647;48.072;11.616;2023-05-02T14:29:24;95768.13;;;14.61;52.87
9225;BME280;4647;48.072;11.616;2023-05-02T14:32:29;95781.94;;;13.75;58.41